createdAt,value
2018-04-10T00:02:17.458Z,59.87
2018-04-10T00:04:44.929Z,60.10
2018-04-10T00:07:12.404Z,60.01
2018-04-10T00:09:39.941Z,60.11
2018-04-10T00:12:07.469Z,60.18
2018-04-10T00:14:34.974Z,60.48
2018-04-10T00:17:02.472Z,60.26
2018-04-10T00:19:29.942Z,60.33
2018-04-10T00:21:57.403Z,60.27
2018-04-10T00:24:24.927Z,60.56
2018-04-10T00:26:52.421Z,60.41
2018-04-10T00:29:19.930Z,60.66
2018-04-10T00:31:47.402Z,60.98
2018-04-10T00:34:14.882Z,61.26
2018-04-10T00:36:42.357Z,61.26
2018-04-10T00:39:09.945Z,61.58
2018-04-10T00:41:37.453Z,61.59
2018-04-10T00:44:05.099Z,61.51
2018-04-10T00:46:32.594Z,61.76
2018-04-10T00:49:00.158Z,61.90
2018-04-10T00:51:27.610Z,62.05
2018-04-10T00:53:55.048Z,61.66
2018-04-10T00:56:22.518Z,61.91
2018-04-10T00:58:50.017Z,62.00
2018-04-10T01:01:17.567Z,62.00
2018-04-10T01:03:45.021Z,62.10
2018-04-10T01:06:12.483Z,62.36
2018-04-10T01:08:39.960Z,62.23
2018-04-10T01:11:07.488Z,62.58
2018-04-10T01:13:35.011Z,62.73
2018-04-10T01:16:02.475Z,62.65
2018-04-10T01:18:30.069Z,62.95
2018-04-10T01:20:57.533Z,63.06
2018-04-10T01:23:25.019Z,63.32
2018-04-10T01:25:52.477Z,63.88
2018-04-10T01:28:20.000Z,64.10
2018-04-10T01:30:47.456Z,64.17
2018-04-10T01:33:14.969Z,64.40
2018-04-10T01:35:42.525Z,64.25
2018-04-10T01:38:09.999Z,64.20
2018-04-10T01:40:37.459Z,64.21
2018-04-10T01:43:04.924Z,64.19
2018-04-10T01:45:32.387Z,64.30
2018-04-10T01:47:59.893Z,64.69
2018-04-10T01:50:27.385Z,64.79
2018-04-10T01:52:54.886Z,64.67
2018-04-10T01:55:22.397Z,64.60
2018-04-10T01:57:49.886Z,65.26
2018-04-10T02:00:17.386Z,65.04
2018-04-10T02:02:44.864Z,64.95
2018-04-10T02:05:12.352Z,65.04
2018-04-10T02:07:39.996Z,64.97
2018-04-10T02:10:07.474Z,64.92
2018-04-10T02:12:34.967Z,64.80
2018-04-10T02:15:02.448Z,65.49
2018-04-10T02:17:29.934Z,65.41
2018-04-10T02:19:57.401Z,65.31
2018-04-10T02:22:25.089Z,65.42
2018-04-10T02:24:52.588Z,65.55
2018-04-10T02:27:20.065Z,65.51
2018-04-10T02:29:47.535Z,65.38
2018-04-10T02:32:14.999Z,65.35
2018-04-10T02:34:42.513Z,65.19
2018-04-10T02:37:09.981Z,65.25
2018-04-10T02:39:37.574Z,65.04
2018-04-10T02:42:05.037Z,65.21
2018-04-10T02:44:32.514Z,65.35
2018-04-10T02:46:59.981Z,64.98
2018-04-10T02:49:27.439Z,65.49
2018-04-10T02:51:55.158Z,65.44
2018-04-10T02:54:22.655Z,65.47
2018-04-10T02:56:50.116Z,65.55
2018-04-10T02:59:17.570Z,65.69
2018-04-10T03:01:45.043Z,65.53
2018-04-10T03:04:12.604Z,65.70
2018-04-10T03:06:40.100Z,66.03
2018-04-10T03:09:07.840Z,66.19
2018-04-10T03:11:35.316Z,66.53
2018-04-10T03:14:03.051Z,66.47
2018-04-10T03:16:30.504Z,66.13
2018-04-10T03:18:58.156Z,65.79
2018-04-10T03:21:25.772Z,65.81
2018-04-10T03:23:53.238Z,65.64
2018-04-10T03:26:20.697Z,66.00
2018-04-10T03:28:48.156Z,65.80
2018-04-10T03:31:15.624Z,65.65
2018-04-10T03:33:43.102Z,65.66
2018-04-10T03:36:10.620Z,65.45
2018-04-10T03:38:38.208Z,65.62
2018-04-10T03:41:05.673Z,65.55
2018-04-10T03:43:33.896Z,65.51
2018-04-10T03:46:01.484Z,65.53
2018-04-10T03:48:29.113Z,65.27
2018-04-10T03:50:56.666Z,64.92
2018-04-10T03:53:24.127Z,65.14
2018-04-10T03:55:51.607Z,65.32
2018-04-10T03:58:19.069Z,65.01
2018-04-10T04:00:46.728Z,65.65
2018-04-10T04:03:14.218Z,65.61
2018-04-10T04:05:41.764Z,65.99
2018-04-10T04:08:09.262Z,66.15
2018-04-10T04:10:37.048Z,66.42
2018-04-10T04:13:05.342Z,66.70
2018-04-10T04:15:32.899Z,66.87
2018-04-10T04:18:00.781Z,66.97
2018-04-10T04:20:40.864Z,67.38
2018-04-10T04:23:08.352Z,67.65
2018-04-10T04:25:35.839Z,68.05
2018-04-10T04:28:03.339Z,68.05
2018-04-10T04:30:30.804Z,68.39
2018-04-10T04:32:58.512Z,68.24
2018-04-10T04:35:26.021Z,68.87
2018-04-10T04:37:53.504Z,69.17
2018-04-10T04:40:21.239Z,69.62
2018-04-10T04:42:48.723Z,69.79
2018-04-10T04:45:16.202Z,70.15
2018-04-10T04:47:43.692Z,70.84
2018-04-10T04:50:11.163Z,70.55
2018-04-10T04:52:38.646Z,70.91
2018-04-10T04:55:06.128Z,70.43
2018-04-10T04:57:33.693Z,70.10
2018-04-10T05:00:01.176Z,70.14
2018-04-10T05:02:28.628Z,69.90
2018-04-10T05:04:56.103Z,70.07
2018-04-10T05:07:23.600Z,69.87
2018-04-10T05:09:51.102Z,69.54
2018-04-10T05:12:18.637Z,69.59
2018-04-10T05:14:46.278Z,69.31
2018-04-10T05:17:13.754Z,69.21
2018-04-10T05:19:41.232Z,68.79
2018-04-10T05:22:08.722Z,68.60
2018-04-10T05:24:36.216Z,68.38
2018-04-10T05:27:03.696Z,68.31
2018-04-10T05:29:31.198Z,68.22
2018-04-10T05:31:58.668Z,68.52
2018-04-10T05:34:26.154Z,67.82
2018-04-10T05:36:53.742Z,67.40
2018-04-10T05:39:21.232Z,67.25
2018-04-10T05:41:48.779Z,67.16
2018-04-10T05:44:16.276Z,67.19
2018-04-10T05:46:43.752Z,66.92
2018-04-10T05:49:11.285Z,68.06
2018-04-10T05:51:38.755Z,67.99
2018-04-10T05:54:06.252Z,67.70
2018-04-10T05:56:33.789Z,67.63
2018-04-10T05:59:01.257Z,67.67
2018-04-10T06:01:28.743Z,68.91
2018-04-10T06:03:56.262Z,69.75
2018-04-10T06:06:23.766Z,68.78
2018-04-10T06:08:51.261Z,68.16
2018-04-10T06:11:18.735Z,68.05
2018-04-10T06:13:46.206Z,67.52
2018-04-10T06:16:13.672Z,66.77
2018-04-10T06:18:41.151Z,66.90
2018-04-10T06:21:08.665Z,67.03
2018-04-10T06:23:36.260Z,67.01
2018-04-10T06:26:03.751Z,66.92
2018-04-10T06:28:31.231Z,66.42
2018-04-10T06:30:58.720Z,65.87
2018-04-10T06:33:26.260Z,65.25
2018-04-10T06:35:53.777Z,64.09
2018-04-10T06:38:21.265Z,63.88
2018-04-10T06:40:48.759Z,63.92
2018-04-10T06:43:16.249Z,63.30
2018-04-10T06:45:43.735Z,62.84
2018-04-10T06:48:11.222Z,62.48
2018-04-10T06:50:38.754Z,61.35
2018-04-10T06:53:06.259Z,61.18
2018-04-10T06:55:33.777Z,60.97
2018-04-10T06:58:01.249Z,60.86
2018-04-10T07:00:28.716Z,60.67
2018-04-10T07:02:56.208Z,60.33
2018-04-10T07:05:23.681Z,59.54
2018-04-10T07:07:51.158Z,59.29
2018-04-10T07:10:18.627Z,58.74
2018-04-10T07:12:46.100Z,58.39
2018-04-10T07:15:13.575Z,57.45
2018-04-10T07:17:41.041Z,56.29
2018-04-10T07:20:08.547Z,56.28
2018-04-10T07:22:36.117Z,55.30
2018-04-10T07:25:03.937Z,54.02
2018-04-10T07:27:31.505Z,54.31
2018-04-10T07:29:58.991Z,54.23
2018-04-10T07:32:26.468Z,54.15
2018-04-10T07:34:53.988Z,54.72
2018-04-10T07:37:21.485Z,55.07
2018-04-10T07:39:49.513Z,54.68
2018-04-10T07:42:17.165Z,55.41
2018-04-10T07:44:44.727Z,54.87
2018-04-10T07:47:12.499Z,54.84
2018-04-10T07:49:40.096Z,54.79
2018-04-10T07:52:07.564Z,54.54
2018-04-10T07:54:35.166Z,54.26
2018-04-10T07:57:02.786Z,53.82
2018-04-10T07:59:30.486Z,54.67
2018-04-10T08:01:57.984Z,53.93
2018-04-10T08:04:25.473Z,53.48
2018-04-10T08:06:52.973Z,53.23
2018-04-10T08:09:20.468Z,52.76
2018-04-10T08:11:47.946Z,51.77
2018-04-10T08:14:15.465Z,50.49
2018-04-10T08:16:42.943Z,50.09
2018-04-10T08:19:10.445Z,50.63
2018-04-10T08:21:37.917Z,49.21
2018-04-10T08:24:05.415Z,49.19
2018-04-10T08:26:33.032Z,48.83
2018-04-10T08:29:00.504Z,47.95
2018-04-10T08:31:27.995Z,46.88
2018-04-10T08:33:55.521Z,45.97
2018-04-10T08:36:23.003Z,46.90
2018-04-10T08:38:50.479Z,47.60
2018-04-10T08:41:17.987Z,47.71
2018-04-10T08:43:45.584Z,47.48
2018-04-10T08:46:13.126Z,45.87
2018-04-10T08:48:40.611Z,49.03
2018-04-10T08:51:08.100Z,47.49
2018-04-10T08:53:35.580Z,44.87
2018-04-10T08:56:03.421Z,44.12
2018-04-10T08:58:31.988Z,44.29
2018-04-10T09:00:59.637Z,43.92
2018-04-10T09:03:27.127Z,44.10
2018-04-10T09:05:54.600Z,44.38
2018-04-10T09:08:22.098Z,44.74
2018-04-10T09:10:49.588Z,44.49
2018-04-10T09:13:17.092Z,45.07
2018-04-10T09:15:44.579Z,45.29
2018-04-10T09:18:12.123Z,45.05
2018-04-10T09:20:39.633Z,44.20
2018-04-10T09:23:07.243Z,44.83
2018-04-10T09:25:34.813Z,44.53
2018-04-10T09:28:02.303Z,44.22
2018-04-10T09:30:29.827Z,44.12
2018-04-10T09:32:57.443Z,44.03
2018-04-10T09:35:24.982Z,44.22
2018-04-10T09:37:52.528Z,43.85
2018-04-10T09:40:20.014Z,43.55
2018-04-10T09:42:47.525Z,44.02
2018-04-10T09:45:15.003Z,45.09
2018-04-10T09:47:42.473Z,43.69
2018-04-10T09:50:10.019Z,43.91
2018-04-10T09:52:37.502Z,42.95
2018-04-10T09:55:05.062Z,42.86
2018-04-10T09:57:32.593Z,42.59
2018-04-10T10:00:00.115Z,41.89
2018-04-10T10:02:27.619Z,42.53
2018-04-10T10:04:55.299Z,40.61
2018-04-10T10:07:22.792Z,41.05
2018-04-10T10:09:50.303Z,40.55
2018-04-10T10:12:17.850Z,40.95
2018-04-10T10:14:45.341Z,40.52
2018-04-10T10:17:13.582Z,39.95
2018-04-10T10:19:41.134Z,40.25
2018-04-10T10:22:08.654Z,40.58
2018-04-10T10:24:36.166Z,40.42
2018-04-10T10:27:03.868Z,40.61
2018-04-10T10:29:31.349Z,40.79
2018-04-10T10:31:58.916Z,37.93
2018-04-10T10:34:26.414Z,38.58
2018-04-10T10:36:53.923Z,38.70
2018-04-10T10:39:21.416Z,40.65
2018-04-10T10:41:48.893Z,37.38
2018-04-10T10:44:16.376Z,37.13
2018-04-10T10:46:43.887Z,37.16
2018-04-10T10:49:11.362Z,37.62
2018-04-10T10:51:38.877Z,37.88
2018-04-10T10:54:06.353Z,38.49
2018-04-10T10:56:33.834Z,38.83
2018-04-10T10:59:01.360Z,38.67
2018-04-10T11:01:28.827Z,38.49
2018-04-10T11:03:56.316Z,37.33
2018-04-10T11:06:23.878Z,37.50
2018-04-10T11:08:51.434Z,36.53
2018-04-10T11:11:18.995Z,37.90
2018-04-10T11:13:46.583Z,36.34
2018-04-10T11:16:14.067Z,36.54
2018-04-10T11:18:41.569Z,35.74
2018-04-10T11:21:09.042Z,35.30
2018-04-10T11:23:36.563Z,35.26
2018-04-10T11:26:04.252Z,34.48
2018-04-10T11:28:31.814Z,34.57
2018-04-10T11:30:59.289Z,34.01
2018-04-10T11:33:26.801Z,34.09
2018-04-10T11:35:54.307Z,33.22
2018-04-10T11:38:21.825Z,33.42
2018-04-10T11:40:49.445Z,33.64
2018-04-10T11:43:16.952Z,33.17
2018-04-10T11:45:44.446Z,32.53
2018-04-10T11:48:11.930Z,32.00
2018-04-10T11:50:39.439Z,33.11
2018-04-10T11:53:07.049Z,31.24
2018-04-10T11:55:34.555Z,32.03
2018-04-10T11:58:02.098Z,30.23
2018-04-10T12:00:29.660Z,29.87
2018-04-10T12:02:57.184Z,30.33
2018-04-10T12:05:24.671Z,29.84
2018-04-10T12:07:52.154Z,27.55
2018-04-10T12:10:19.638Z,27.21
2018-04-10T12:12:47.095Z,24.69
2018-04-10T12:15:14.581Z,23.39
2018-04-10T12:17:42.067Z,23.21
2018-04-10T12:20:09.567Z,23.13
2018-04-10T12:22:37.085Z,21.40
2018-04-10T12:25:04.767Z,19.20
2018-04-10T12:27:32.404Z,18.65
2018-04-10T12:29:59.994Z,17.24
2018-04-10T12:32:27.542Z,17.74
2018-04-10T12:34:55.047Z,18.74
2018-04-10T12:37:22.555Z,17.38
2018-04-10T12:39:50.077Z,18.45
2018-04-10T12:42:17.677Z,17.86
2018-04-10T12:44:45.171Z,18.13
2018-04-10T12:47:12.645Z,19.49
2018-04-10T12:49:40.136Z,19.00
2018-04-10T12:52:07.623Z,20.97
2018-04-10T12:54:35.154Z,23.29
2018-04-10T12:57:02.807Z,25.59
2018-04-10T12:59:30.285Z,23.94
2018-04-10T13:01:57.767Z,22.71
2018-04-10T13:04:25.237Z,23.77
2018-04-10T13:06:52.820Z,23.03
2018-04-10T13:09:20.334Z,23.86
2018-04-10T13:11:47.839Z,25.31
2018-04-10T13:14:15.326Z,24.16
2018-04-10T13:16:42.847Z,23.33
2018-04-10T13:19:10.330Z,23.39
2018-04-10T13:21:37.902Z,24.09
2018-04-10T13:24:05.544Z,22.81
2018-04-10T13:26:33.031Z,22.50
2018-04-10T13:29:00.539Z,21.69
2018-04-10T13:31:28.055Z,21.64
2018-04-10T13:33:55.573Z,23.39
2018-04-10T13:36:23.067Z,22.15
2018-04-10T13:38:50.551Z,22.78
2018-04-10T13:41:18.094Z,22.74
2018-04-10T13:43:45.686Z,22.30
2018-04-10T13:46:13.220Z,24.16
2018-04-10T13:48:41.178Z,25.51
2018-04-10T13:51:08.804Z,26.52
2018-04-10T13:53:36.291Z,28.05
2018-04-10T13:56:03.985Z,28.11
2018-04-10T13:58:31.484Z,27.54
2018-04-10T14:00:58.960Z,26.79
2018-04-10T14:03:26.437Z,25.56
2018-04-10T14:05:53.933Z,26.23
2018-04-10T14:08:21.460Z,26.97
2018-04-10T14:10:48.939Z,28.24
2018-04-10T14:13:16.422Z,29.18
2018-04-10T14:15:43.916Z,28.57
2018-04-10T14:18:11.400Z,29.12
2018-04-10T14:20:38.875Z,28.17
2018-04-10T14:23:06.380Z,29.37
2018-04-10T14:25:33.880Z,28.40
2018-04-10T14:28:01.411Z,28.69
2018-04-10T14:30:28.905Z,27.39
2018-04-10T14:32:56.599Z,27.76
2018-04-10T14:35:24.079Z,27.55
2018-04-10T14:37:51.642Z,27.94
2018-04-10T14:40:19.336Z,27.62
2018-04-10T14:42:46.988Z,28.56
2018-04-10T14:45:14.482Z,28.78
2018-04-10T14:47:41.954Z,29.13
2018-04-10T14:50:09.509Z,30.66
2018-04-10T14:52:37.041Z,30.13
2018-04-10T14:55:04.516Z,30.05
2018-04-10T14:57:32.050Z,31.66
2018-04-10T14:59:59.649Z,32.31
2018-04-10T15:02:27.164Z,33.20
2018-04-10T15:04:54.679Z,33.41
2018-04-10T15:07:22.137Z,33.84
2018-04-10T15:09:49.628Z,34.08
2018-04-10T15:12:17.110Z,35.01
2018-04-10T15:14:44.764Z,35.25
2018-04-10T15:17:12.225Z,38.09
2018-04-10T15:19:39.720Z,39.77
2018-04-10T15:22:07.178Z,41.72
2018-04-10T15:24:34.707Z,42.73
2018-04-10T15:27:02.322Z,44.74
2018-04-10T15:29:29.810Z,45.67
2018-04-10T15:31:57.411Z,45.39
2018-04-10T15:34:24.887Z,45.80
2018-04-10T15:36:52.501Z,46.91
2018-04-10T15:39:19.993Z,47.35
2018-04-10T15:41:47.638Z,47.82
2018-04-10T15:44:15.118Z,49.35
2018-04-10T15:46:42.884Z,49.20
2018-04-10T15:49:10.401Z,50.36
2018-04-10T15:51:37.980Z,50.26
2018-04-10T15:54:05.717Z,51.19
2018-04-10T15:56:33.245Z,51.71
2018-04-10T15:59:00.777Z,50.07
2018-04-10T16:01:28.264Z,50.77
2018-04-10T16:03:55.744Z,50.33
2018-04-10T16:06:23.258Z,50.52
2018-04-10T16:08:50.734Z,49.68
2018-04-10T16:11:18.457Z,50.00
2018-04-10T16:13:46.087Z,50.90
2018-04-10T16:16:13.635Z,50.90
2018-04-10T16:18:41.242Z,51.47
2018-04-10T16:21:08.743Z,52.35
2018-04-10T16:23:36.416Z,52.81
2018-04-10T16:26:03.903Z,53.52
2018-04-10T16:28:31.457Z,53.79
2018-04-10T16:30:59.292Z,54.20
2018-04-10T16:33:26.781Z,54.72
2018-04-10T16:35:54.258Z,55.16
2018-04-10T16:38:21.867Z,55.76
2018-04-10T16:40:49.400Z,55.56
2018-04-10T16:43:16.911Z,56.05
2018-04-10T16:45:44.463Z,55.98
2018-04-10T16:48:11.947Z,55.67
2018-04-10T16:50:39.696Z,55.27
2018-04-10T16:53:07.210Z,55.45
2018-04-10T16:55:34.868Z,55.96
2018-04-10T16:58:02.510Z,56.75
2018-04-10T17:00:30.070Z,57.54
2018-04-10T17:02:57.564Z,58.61
2018-04-10T17:05:25.066Z,60.66
2018-04-10T17:07:52.536Z,64.93
2018-04-10T17:10:19.999Z,68.76
2018-04-10T17:12:47.594Z,73.71
2018-04-10T17:15:15.129Z,74.07
2018-04-10T17:17:42.643Z,78.25
2018-04-10T17:20:10.222Z,80.61
2018-04-10T17:22:37.744Z,81.47
2018-04-10T17:25:05.282Z,81.58
2018-04-10T17:27:32.760Z,82.97
2018-04-10T17:30:00.260Z,81.50
2018-04-10T17:32:27.801Z,82.09
2018-04-10T17:34:55.283Z,82.35
2018-04-10T17:37:22.764Z,83.36
2018-04-10T17:39:50.232Z,84.33
2018-04-10T17:42:17.730Z,85.02
2018-04-10T17:44:45.289Z,84.85
2018-04-10T17:47:12.818Z,84.56
2018-04-10T17:49:40.302Z,85.06
2018-04-10T17:52:07.860Z,84.13
2018-04-10T17:54:37.706Z,84.62
2018-04-10T17:57:05.184Z,84.41
2018-04-10T17:59:32.765Z,84.67
2018-04-10T18:02:00.428Z,85.34
2018-04-10T18:04:27.940Z,83.21
2018-04-10T18:06:55.420Z,83.55
2018-04-10T18:09:23.109Z,83.39
2018-04-10T18:11:50.580Z,84.43
2018-04-10T18:14:18.095Z,82.83
2018-04-10T18:16:45.563Z,83.77
2018-04-10T18:19:13.568Z,83.69
2018-04-10T18:21:41.732Z,83.18
2018-04-10T18:24:09.688Z,84.84
2018-04-10T18:26:38.411Z,83.92
2018-04-10T18:29:13.176Z,84.65
2018-04-10T18:31:41.252Z,83.53
2018-04-10T18:34:08.824Z,83.32
2018-04-10T18:36:36.774Z,83.13
2018-04-10T18:39:04.419Z,82.10
2018-04-10T18:41:32.234Z,82.66
2018-04-10T18:43:59.923Z,84.21
2018-04-10T18:46:27.384Z,82.54
2018-04-10T18:48:54.881Z,83.29
2018-04-10T18:51:22.498Z,82.05
2018-04-10T18:53:49.992Z,82.30
2018-04-10T18:56:17.455Z,82.98
2018-04-10T18:58:45.036Z,82.36
2018-04-10T19:01:12.507Z,82.73
2018-04-10T19:03:39.978Z,80.84
2018-04-10T19:06:07.460Z,82.42
2018-04-10T19:08:35.296Z,80.41
2018-04-10T19:11:02.794Z,84.57
2018-04-10T19:13:30.396Z,80.78
2018-04-10T19:15:57.878Z,81.40
2018-04-10T19:18:25.366Z,83.33
2018-04-10T19:20:52.883Z,80.75
2018-04-10T19:23:20.358Z,79.43
2018-04-10T19:25:47.924Z,80.61
2018-04-10T19:28:15.434Z,82.00
2018-04-10T19:30:43.054Z,79.99
2018-04-10T19:33:10.539Z,80.48
2018-04-10T19:35:38.071Z,83.02
2018-04-10T19:38:05.596Z,81.09
2018-04-10T19:40:33.149Z,80.77
2018-04-10T19:43:11.798Z,81.08
2018-04-10T19:45:40.383Z,80.21
2018-04-10T19:48:07.860Z,81.88
2018-04-10T19:50:35.326Z,81.85
2018-04-10T19:53:02.808Z,80.39
2018-04-10T19:55:30.327Z,81.30
2018-04-10T19:57:57.800Z,81.53
2018-04-10T20:00:25.326Z,81.06
2018-04-10T20:02:52.934Z,79.95
2018-04-10T20:05:20.427Z,79.93
2018-04-10T20:07:47.999Z,82.08
2018-04-10T20:10:15.765Z,82.28
2018-04-10T20:12:43.291Z,84.45
2018-04-10T20:15:10.959Z,82.74
2018-04-10T20:17:38.456Z,82.54
2018-04-10T20:20:06.102Z,81.12
2018-04-10T20:22:33.704Z,82.54
2018-04-10T20:25:01.238Z,79.61
2018-04-10T20:27:28.989Z,81.96
2018-04-10T20:29:56.496Z,81.86
2018-04-10T20:32:24.064Z,81.35
2018-04-10T20:34:51.698Z,79.88
2018-04-10T20:37:19.297Z,82.64
2018-04-10T20:39:46.800Z,83.61
2018-04-10T20:42:14.264Z,82.61
2018-04-10T20:44:41.847Z,81.12
2018-04-10T20:47:09.306Z,81.30
2018-04-10T20:49:36.833Z,81.73
2018-04-10T20:52:04.356Z,83.18
2018-04-10T20:54:31.858Z,84.60
2018-04-10T20:56:59.429Z,82.88
2018-04-10T20:59:26.987Z,82.37
2018-04-10T21:01:54.663Z,80.98
2018-04-10T21:04:22.245Z,81.11
2018-04-10T21:06:49.723Z,80.54
2018-04-10T21:09:17.479Z,83.70
2018-04-10T21:11:44.985Z,84.33
2018-04-10T21:14:12.607Z,83.85
2018-04-10T21:16:40.322Z,83.79
2018-04-10T21:19:07.987Z,83.00
2018-04-10T21:21:35.488Z,80.80
2018-04-10T21:24:03.023Z,81.44
2018-04-10T21:26:30.632Z,80.73
2018-04-10T21:28:58.101Z,82.50
2018-04-10T21:31:25.685Z,81.65
2018-04-10T21:33:53.255Z,81.79
2018-04-10T21:36:20.839Z,82.65
2018-04-10T21:38:48.334Z,82.53
2018-04-10T21:41:16.108Z,81.36
2018-04-10T21:43:43.818Z,81.61
2018-04-10T21:46:11.280Z,81.57
2018-04-10T21:48:38.899Z,82.27
2018-04-10T21:51:14.080Z,82.82
2018-04-10T21:53:42.536Z,82.29
2018-04-10T21:56:10.173Z,82.31
2018-04-10T21:58:37.640Z,81.42
2018-04-10T22:01:05.151Z,81.29
2018-04-10T22:03:32.630Z,81.46
2018-04-10T22:06:04.392Z,81.66
2018-04-10T22:08:31.918Z,81.71
2018-04-10T22:11:00.286Z,82.22
2018-04-10T22:13:27.927Z,81.37
2018-04-10T22:15:55.388Z,81.66
2018-04-10T22:18:22.851Z,80.46
2018-04-10T22:20:50.483Z,81.97
2018-04-10T22:23:17.998Z,82.11
2018-04-10T22:25:45.464Z,82.84
2018-04-10T22:28:12.946Z,82.68
2018-04-10T22:30:40.404Z,81.61
2018-04-10T22:33:08.101Z,81.36
2018-04-10T22:35:35.591Z,82.17
2018-04-10T22:38:03.118Z,82.73
2018-04-10T22:40:30.615Z,82.48
2018-04-10T22:42:58.090Z,82.01
2018-04-10T22:45:25.558Z,81.91
2018-04-10T22:47:53.098Z,79.69
2018-04-10T22:50:23.093Z,79.85
2018-04-10T22:52:52.704Z,79.62
2018-04-10T22:55:23.049Z,81.64
2018-04-10T22:57:51.757Z,81.56
2018-04-10T23:03:18.858Z,81.87
2018-04-10T23:05:48.027Z,81.42
2018-04-10T23:08:16.199Z,81.87
2018-04-10T23:10:47.293Z,81.46
2018-04-10T23:13:16.098Z,81.04
2018-04-10T23:15:47.381Z,81.32
2018-04-10T23:18:17.533Z,82.42
2018-04-10T23:20:46.513Z,81.87
2018-04-10T23:23:13.994Z,79.78
2018-04-10T23:25:41.475Z,80.69
2018-04-10T23:28:08.963Z,81.27
2018-04-10T23:30:36.434Z,81.09
2018-04-10T23:33:03.901Z,81.32
2018-04-10T23:35:31.378Z,81.25
2018-04-10T23:37:58.875Z,80.75
2018-04-10T23:40:26.464Z,81.91
2018-04-10T23:42:53.974Z,81.37
2018-04-10T23:45:21.464Z,81.46
2018-04-10T23:47:48.949Z,81.04
2018-04-10T23:50:16.481Z,81.38
2018-04-10T23:52:43.957Z,81.47
2018-04-10T23:55:11.419Z,81.74
2018-04-10T23:57:38.876Z,81.86
